sensor_id;sensor_type;location;lat;lon;timestamp;P1;durP1;ratioP1;P2;durP2;ratioP2
77822;SDS011;67013;49.730;17.292;2023-02-15T00:01:35;14.20;;;9.00;;
77822;SDS011;67013;49.730;17.292;2023-02-15T00:04:04;16.60;;;8.60;;
77822;SDS011;67013;49.730;17.292;2023-02-15T00:06:35;17.70;;;9.00;;
77822;SDS011;67013;49.730;17.292;2023-02-15T00:09:05;18.90;;;9.30;;
77822;SDS011;67013;49.730;17.292;2023-02-15T00:11:34;18.10;;;9.70;;
77822;SDS011;67013;49.730;17.292;2023-02-15T00:14:08;20.70;;;10.10;;
77822;SDS011;67013;49.730;17.292;2023-02-15T00:19:08;19.80;;;8.60;;
77822;SDS011;67013;49.730;17.292;2023-02-15T00:21:39;18.40;;;9.00;;
77822;SDS011;67013;49.730;17.292;2023-02-15T00:24:10;14.30;;;8.40;;
77822;SDS011;67013;49.730;17.292;2023-02-15T00:26:41;16.70;;;8.30;;
77822;SDS011;67013;49.730;17.292;2023-02-15T00:29:11;15.70;;;8.70;;
77822;SDS011;67013;49.730;17.292;2023-02-15T00:31:42;17.30;;;9.20;;
77822;SDS011;67013;49.730;17.292;2023-02-15T00:34:13;17.10;;;9.60;;
77822;SDS011;67013;49.730;17.292;2023-02-15T00:36:44;17.60;;;10.20;;
77822;SDS011;67013;49.730;17.292;2023-02-15T00:39:14;15.40;;;9.30;;
77822;SDS011;67013;49.730;17.292;2023-02-15T00:41:44;17.30;;;10.00;;
77822;SDS011;67013;49.730;17.292;2023-02-15T00:44:14;20.60;;;10.50;;
77822;SDS011;67013;49.730;17.292;2023-02-15T00:46:44;18.90;;;9.50;;
77822;SDS011;67013;49.730;17.292;2023-02-15T00:49:14;18.40;;;9.60;;
77822;SDS011;67013;49.730;17.292;2023-02-15T00:51:43;16.90;;;9.40;;
77822;SDS011;67013;49.730;17.292;2023-02-15T00:54:12;17.40;;;9.00;;
77822;SDS011;67013;49.730;17.292;2023-02-15T00:56:42;17.80;;;8.70;;
77822;SDS011;67013;49.730;17.292;2023-02-15T00:59:11;19.20;;;9.50;;
77822;SDS011;67013;49.730;17.292;2023-02-15T01:01:41;14.90;;;8.10;;
77822;SDS011;67013;49.730;17.292;2023-02-15T01:04:10;16.90;;;8.20;;
77822;SDS011;67013;49.730;17.292;2023-02-15T01:06:40;20.40;;;9.90;;
77822;SDS011;67013;49.730;17.292;2023-02-15T01:09:09;15.90;;;9.10;;
77822;SDS011;67013;49.730;17.292;2023-02-15T01:11:40;18.50;;;10.00;;
77822;SDS011;67013;49.730;17.292;2023-02-15T01:14:09;16.10;;;9.20;;
77822;SDS011;67013;49.730;17.292;2023-02-15T01:16:39;17.90;;;9.20;;
77822;SDS011;67013;49.730;17.292;2023-02-15T01:19:09;17.00;;;8.20;;
77822;SDS011;67013;49.730;17.292;2023-02-15T01:21:38;17.20;;;9.90;;
77822;SDS011;67013;49.730;17.292;2023-02-15T01:24:11;21.50;;;10.50;;
77822;SDS011;67013;49.730;17.292;2023-02-15T01:26:41;19.40;;;10.20;;
77822;SDS011;67013;49.730;17.292;2023-02-15T01:29:10;20.10;;;10.50;;
77822;SDS011;67013;49.730;17.292;2023-02-15T01:31:40;18.60;;;10.20;;
77822;SDS011;67013;49.730;17.292;2023-02-15T01:34:09;19.80;;;10.10;;
77822;SDS011;67013;49.730;17.292;2023-02-15T01:36:39;18.10;;;10.60;;
77822;SDS011;67013;49.730;17.292;2023-02-15T01:39:08;18.40;;;9.30;;
77822;SDS011;67013;49.730;17.292;2023-02-15T01:41:37;18.90;;;9.20;;
77822;SDS011;67013;49.730;17.292;2023-02-15T01:47:08;16.90;;;8.50;;
77822;SDS011;67013;49.730;17.292;2023-02-15T01:49:40;22.20;;;10.40;;
77822;SDS011;67013;49.730;17.292;2023-02-15T01:52:13;18.90;;;10.40;;
77822;SDS011;67013;49.730;17.292;2023-02-15T01:54:45;21.70;;;11.10;;
77822;SDS011;67013;49.730;17.292;2023-02-15T01:57:16;22.40;;;11.30;;
77822;SDS011;67013;49.730;17.292;2023-02-15T01:59:51;20.80;;;10.10;;
77822;SDS011;67013;49.730;17.292;2023-02-15T02:02:24;23.80;;;11.80;;
77822;SDS011;67013;49.730;17.292;2023-02-15T02:04:55;20.90;;;11.00;;
77822;SDS011;67013;49.730;17.292;2023-02-15T02:07:29;19.90;;;10.90;;
77822;SDS011;67013;49.730;17.292;2023-02-15T02:10:05;18.30;;;10.10;;
77822;SDS011;67013;49.730;17.292;2023-02-15T02:12:36;19.20;;;11.40;;
77822;SDS011;67013;49.730;17.292;2023-02-15T02:17:40;19.70;;;9.60;;
77822;SDS011;67013;49.730;17.292;2023-02-15T02:20:21;17.50;;;9.30;;
77822;SDS011;67013;49.730;17.292;2023-02-15T02:23:06;14.20;;;8.00;;
77822;SDS011;67013;49.730;17.292;2023-02-15T02:26:01;15.90;;;8.70;;
77822;SDS011;67013;49.730;17.292;2023-02-15T02:31:58;18.00;;;10.10;;
77822;SDS011;67013;49.730;17.292;2023-02-15T02:34:52;18.30;;;9.50;;
77822;SDS011;67013;49.730;17.292;2023-02-15T02:37:30;19.10;;;9.80;;
77822;SDS011;67013;49.730;17.292;2023-02-15T02:40:06;24.70;;;11.60;;
77822;SDS011;67013;49.730;17.292;2023-02-15T02:42:41;22.30;;;11.20;;
77822;SDS011;67013;49.730;17.292;2023-02-15T02:45:15;20.40;;;10.60;;
77822;SDS011;67013;49.730;17.292;2023-02-15T02:47:51;22.40;;;10.50;;
77822;SDS011;67013;49.730;17.292;2023-02-15T02:50:25;18.00;;;8.60;;
77822;SDS011;67013;49.730;17.292;2023-02-15T02:52:58;20.30;;;9.50;;
77822;SDS011;67013;49.730;17.292;2023-02-15T02:55:29;19.30;;;10.30;;
77822;SDS011;67013;49.730;17.292;2023-02-15T02:58:04;18.40;;;10.30;;
77822;SDS011;67013;49.730;17.292;2023-02-15T03:00:39;19.10;;;9.40;;
77822;SDS011;67013;49.730;17.292;2023-02-15T03:03:12;18.10;;;10.40;;
77822;SDS011;67013;49.730;17.292;2023-02-15T03:05:47;18.50;;;9.50;;
77822;SDS011;67013;49.730;17.292;2023-02-15T03:08:22;16.90;;;9.60;;
77822;SDS011;67013;49.730;17.292;2023-02-15T03:10:58;20.40;;;11.30;;
77822;SDS011;67013;49.730;17.292;2023-02-15T03:13:30;21.00;;;10.30;;
77822;SDS011;67013;49.730;17.292;2023-02-15T03:16:01;25.20;;;11.60;;
77822;SDS011;67013;49.730;17.292;2023-02-15T03:18:55;19.40;;;10.10;;
77822;SDS011;67013;49.730;17.292;2023-02-15T03:21:32;18.40;;;8.70;;
77822;SDS011;67013;49.730;17.292;2023-02-15T03:24:06;17.10;;;9.50;;
77822;SDS011;67013;49.730;17.292;2023-02-15T03:26:38;18.60;;;9.20;;
77822;SDS011;67013;49.730;17.292;2023-02-15T03:29:10;19.60;;;9.60;;
77822;SDS011;67013;49.730;17.292;2023-02-15T03:31:43;17.10;;;8.70;;
77822;SDS011;67013;49.730;17.292;2023-02-15T03:34:17;19.50;;;9.90;;
77822;SDS011;67013;49.730;17.292;2023-02-15T03:36:49;17.50;;;8.90;;
77822;SDS011;67013;49.730;17.292;2023-02-15T03:39:25;15.80;;;8.60;;
77822;SDS011;67013;49.730;17.292;2023-02-15T03:42:01;15.50;;;9.20;;
77822;SDS011;67013;49.730;17.292;2023-02-15T03:44:39;14.70;;;8.20;;
77822;SDS011;67013;49.730;17.292;2023-02-15T03:47:15;15.50;;;8.40;;
77822;SDS011;67013;49.730;17.292;2023-02-15T03:49:49;16.00;;;8.30;;
77822;SDS011;67013;49.730;17.292;2023-02-15T03:52:22;20.50;;;9.90;;
77822;SDS011;67013;49.730;17.292;2023-02-15T03:54:53;19.50;;;9.60;;
77822;SDS011;67013;49.730;17.292;2023-02-15T03:57:23;17.90;;;9.70;;
77822;SDS011;67013;49.730;17.292;2023-02-15T04:00:13;19.10;;;10.30;;
77822;SDS011;67013;49.730;17.292;2023-02-15T04:03:20;15.60;;;8.40;;
77822;SDS011;67013;49.730;17.292;2023-02-15T04:05:58;17.40;;;9.90;;
77822;SDS011;67013;49.730;17.292;2023-02-15T04:08:30;16.20;;;9.30;;
77822;SDS011;67013;49.730;17.292;2023-02-15T04:11:13;16.00;;;9.60;;
77822;SDS011;67013;49.730;17.292;2023-02-15T04:13:43;18.10;;;9.30;;
77822;SDS011;67013;49.730;17.292;2023-02-15T04:16:12;16.10;;;9.60;;
77822;SDS011;67013;49.730;17.292;2023-02-15T04:18:42;19.70;;;10.10;;
77822;SDS011;67013;49.730;17.292;2023-02-15T04:21:30;18.50;;;9.90;;
77822;SDS011;67013;49.730;17.292;2023-02-15T04:24:17;20.40;;;10.50;;
77822;SDS011;67013;49.730;17.292;2023-02-15T04:27:05;19.30;;;11.00;;
77822;SDS011;67013;49.730;17.292;2023-02-15T04:29:34;17.80;;;10.40;;
77822;SDS011;67013;49.730;17.292;2023-02-15T04:32:04;23.80;;;11.10;;
77822;SDS011;67013;49.730;17.292;2023-02-15T04:34:33;22.40;;;11.30;;
77822;SDS011;67013;49.730;17.292;2023-02-15T04:37:03;21.50;;;11.10;;
77822;SDS011;67013;49.730;17.292;2023-02-15T04:39:32;21.90;;;11.20;;
77822;SDS011;67013;49.730;17.292;2023-02-15T04:42:02;21.80;;;12.20;;
77822;SDS011;67013;49.730;17.292;2023-02-15T04:44:31;19.90;;;10.90;;
77822;SDS011;67013;49.730;17.292;2023-02-15T04:47:00;21.40;;;12.00;;
77822;SDS011;67013;49.730;17.292;2023-02-15T04:49:30;21.40;;;12.00;;
77822;SDS011;67013;49.730;17.292;2023-02-15T04:51:59;17.70;;;10.20;;
77822;SDS011;67013;49.730;17.292;2023-02-15T04:54:29;21.20;;;10.70;;
77822;SDS011;67013;49.730;17.292;2023-02-15T04:56:58;19.50;;;11.10;;
77822;SDS011;67013;49.730;17.292;2023-02-15T04:59:28;20.40;;;10.70;;
77822;SDS011;67013;49.730;17.292;2023-02-15T05:01:57;22.00;;;10.80;;
77822;SDS011;67013;49.730;17.292;2023-02-15T05:04:27;21.00;;;12.50;;
77822;SDS011;67013;49.730;17.292;2023-02-15T05:06:56;20.40;;;12.30;;
77822;SDS011;67013;49.730;17.292;2023-02-15T05:09:26;21.40;;;11.90;;
77822;SDS011;67013;49.730;17.292;2023-02-15T05:11:55;22.80;;;12.50;;
77822;SDS011;67013;49.730;17.292;2023-02-15T05:14:25;29.00;;;14.90;;
77822;SDS011;67013;49.730;17.292;2023-02-15T05:16:54;26.80;;;14.30;;
77822;SDS011;67013;49.730;17.292;2023-02-15T05:19:27;25.60;;;12.60;;
77822;SDS011;67013;49.730;17.292;2023-02-15T05:21:56;23.50;;;11.70;;
77822;SDS011;67013;49.730;17.292;2023-02-15T05:24:26;23.20;;;12.40;;
77822;SDS011;67013;49.730;17.292;2023-02-15T05:27:13;22.30;;;12.30;;
77822;SDS011;67013;49.730;17.292;2023-02-15T05:30:01;20.90;;;11.50;;
77822;SDS011;67013;49.730;17.292;2023-02-15T05:32:30;21.70;;;12.10;;
77822;SDS011;67013;49.730;17.292;2023-02-15T05:35:00;23.50;;;11.90;;
77822;SDS011;67013;49.730;17.292;2023-02-15T05:37:29;25.40;;;13.40;;
77822;SDS011;67013;49.730;17.292;2023-02-15T05:39:59;25.30;;;14.30;;
77822;SDS011;67013;49.730;17.292;2023-02-15T05:42:28;28.90;;;15.80;;
77822;SDS011;67013;49.730;17.292;2023-02-15T05:44:58;24.70;;;14.20;;
77822;SDS011;67013;49.730;17.292;2023-02-15T05:47:27;26.40;;;15.20;;
77822;SDS011;67013;49.730;17.292;2023-02-15T05:49:57;32.00;;;15.90;;
77822;SDS011;67013;49.730;17.292;2023-02-15T05:52:26;32.40;;;17.10;;
77822;SDS011;67013;49.730;17.292;2023-02-15T05:54:56;35.20;;;18.60;;
77822;SDS011;67013;49.730;17.292;2023-02-15T05:57:26;34.30;;;18.40;;
77822;SDS011;67013;49.730;17.292;2023-02-15T05:59:56;24.90;;;13.90;;
77822;SDS011;67013;49.730;17.292;2023-02-15T06:02:25;26.70;;;15.00;;
77822;SDS011;67013;49.730;17.292;2023-02-15T06:04:55;33.70;;;19.70;;
77822;SDS011;67013;49.730;17.292;2023-02-15T06:07:24;30.80;;;19.20;;
77822;SDS011;67013;49.730;17.292;2023-02-15T06:09:53;30.00;;;16.80;;
77822;SDS011;67013;49.730;17.292;2023-02-15T06:12:23;26.70;;;15.50;;
77822;SDS011;67013;49.730;17.292;2023-02-15T06:14:52;26.50;;;15.00;;
77822;SDS011;67013;49.730;17.292;2023-02-15T06:17:22;31.20;;;16.40;;
77822;SDS011;67013;49.730;17.292;2023-02-15T06:19:52;28.20;;;15.80;;
77822;SDS011;67013;49.730;17.292;2023-02-15T06:22:21;24.10;;;13.90;;
77822;SDS011;67013;49.730;17.292;2023-02-15T06:24:51;28.10;;;14.00;;
77822;SDS011;67013;49.730;17.292;2023-02-15T06:27:20;25.00;;;14.10;;
77822;SDS011;67013;49.730;17.292;2023-02-15T06:29:50;27.50;;;15.30;;
77822;SDS011;67013;49.730;17.292;2023-02-15T06:32:19;28.90;;;16.20;;
77822;SDS011;67013;49.730;17.292;2023-02-15T06:34:48;31.20;;;16.00;;
77822;SDS011;67013;49.730;17.292;2023-02-15T06:37:18;26.50;;;16.40;;
77822;SDS011;67013;49.730;17.292;2023-02-15T06:39:47;28.80;;;17.30;;
77822;SDS011;67013;49.730;17.292;2023-02-15T06:42:17;27.10;;;15.40;;
77822;SDS011;67013;49.730;17.292;2023-02-15T06:44:46;25.70;;;16.00;;
77822;SDS011;67013;49.730;17.292;2023-02-15T06:47:16;24.40;;;13.70;;
77822;SDS011;67013;49.730;17.292;2023-02-15T06:49:45;21.70;;;12.90;;
77822;SDS011;67013;49.730;17.292;2023-02-15T06:52:15;24.80;;;13.30;;
77822;SDS011;67013;49.730;17.292;2023-02-15T06:54:44;29.60;;;18.80;;
77822;SDS011;67013;49.730;17.292;2023-02-15T06:57:13;30.40;;;17.80;;
77822;SDS011;67013;49.730;17.292;2023-02-15T06:59:43;27.10;;;14.60;;
77822;SDS011;67013;49.730;17.292;2023-02-15T07:02:13;27.30;;;15.30;;
77822;SDS011;67013;49.730;17.292;2023-02-15T07:04:43;29.00;;;16.80;;
77822;SDS011;67013;49.730;17.292;2023-02-15T07:07:12;28.30;;;15.80;;
77822;SDS011;67013;49.730;17.292;2023-02-15T07:09:42;27.80;;;17.40;;
77822;SDS011;67013;49.730;17.292;2023-02-15T07:12:11;30.30;;;16.30;;
77822;SDS011;67013;49.730;17.292;2023-02-15T07:14:58;31.10;;;17.20;;
77822;SDS011;67013;49.730;17.292;2023-02-15T07:17:28;28.50;;;15.80;;
77822;SDS011;67013;49.730;17.292;2023-02-15T07:19:57;27.60;;;15.50;;
77822;SDS011;67013;49.730;17.292;2023-02-15T07:22:28;26.20;;;14.80;;
77822;SDS011;67013;49.730;17.292;2023-02-15T07:24:57;26.10;;;14.30;;
77822;SDS011;67013;49.730;17.292;2023-02-15T07:27:27;25.00;;;13.80;;
77822;SDS011;67013;49.730;17.292;2023-02-15T07:29:56;23.60;;;13.20;;
77822;SDS011;67013;49.730;17.292;2023-02-15T07:32:28;27.00;;;14.80;;
77822;SDS011;67013;49.730;17.292;2023-02-15T07:34:58;26.30;;;14.50;;
77822;SDS011;67013;49.730;17.292;2023-02-15T07:37:28;22.40;;;13.50;;
77822;SDS011;67013;49.730;17.292;2023-02-15T07:39:57;27.40;;;15.10;;
77822;SDS011;67013;49.730;17.292;2023-02-15T07:42:26;29.00;;;15.90;;
77822;SDS011;67013;49.730;17.292;2023-02-15T07:44:57;29.90;;;20.00;;
77822;SDS011;67013;49.730;17.292;2023-02-15T07:47:27;46.40;;;31.40;;
77822;SDS011;67013;49.730;17.292;2023-02-15T07:49:57;28.10;;;18.50;;
77822;SDS011;67013;49.730;17.292;2023-02-15T07:52:26;32.20;;;19.50;;
77822;SDS011;67013;49.730;17.292;2023-02-15T07:54:55;27.10;;;16.20;;
77822;SDS011;67013;49.730;17.292;2023-02-15T07:57:25;22.90;;;13.60;;
77822;SDS011;67013;49.730;17.292;2023-02-15T07:59:55;22.80;;;14.40;;
77822;SDS011;67013;49.730;17.292;2023-02-15T08:02:25;20.90;;;12.00;;
77822;SDS011;67013;49.730;17.292;2023-02-15T08:04:55;20.80;;;11.30;;
77822;SDS011;67013;49.730;17.292;2023-02-15T08:07:24;21.50;;;12.00;;
77822;SDS011;67013;49.730;17.292;2023-02-15T08:09:54;22.70;;;12.80;;
77822;SDS011;67013;49.730;17.292;2023-02-15T08:12:23;20.70;;;12.50;;
77822;SDS011;67013;49.730;17.292;2023-02-15T08:14:55;21.60;;;12.10;;
77822;SDS011;67013;49.730;17.292;2023-02-15T08:17:25;20.60;;;12.60;;
77822;SDS011;67013;49.730;17.292;2023-02-15T08:19:54;22.30;;;13.30;;
77822;SDS011;67013;49.730;17.292;2023-02-15T08:22:24;20.90;;;12.30;;
77822;SDS011;67013;49.730;17.292;2023-02-15T08:24:53;17.40;;;11.40;;
77822;SDS011;67013;49.730;17.292;2023-02-15T08:27:22;21.80;;;12.30;;
77822;SDS011;67013;49.730;17.292;2023-02-15T08:29:53;21.20;;;13.60;;
77822;SDS011;67013;49.730;17.292;2023-02-15T08:32:22;22.40;;;12.90;;
77822;SDS011;67013;49.730;17.292;2023-02-15T08:34:52;21.30;;;12.50;;
77822;SDS011;67013;49.730;17.292;2023-02-15T08:37:21;22.50;;;11.20;;
77822;SDS011;67013;49.730;17.292;2023-02-15T08:39:52;19.70;;;12.30;;
77822;SDS011;67013;49.730;17.292;2023-02-15T08:42:21;20.20;;;12.90;;
77822;SDS011;67013;49.730;17.292;2023-02-15T08:44:51;23.60;;;13.70;;
77822;SDS011;67013;49.730;17.292;2023-02-15T08:47:20;20.60;;;12.40;;
77822;SDS011;67013;49.730;17.292;2023-02-15T08:49:50;22.10;;;12.90;;
77822;SDS011;67013;49.730;17.292;2023-02-15T08:52:19;20.20;;;13.10;;
77822;SDS011;67013;49.730;17.292;2023-02-15T08:54:48;19.40;;;11.50;;
77822;SDS011;67013;49.730;17.292;2023-02-15T08:57:18;23.40;;;13.30;;
77822;SDS011;67013;49.730;17.292;2023-02-15T08:59:48;23.30;;;14.60;;
77822;SDS011;67013;49.730;17.292;2023-02-15T09:02:17;21.30;;;13.80;;
77822;SDS011;67013;49.730;17.292;2023-02-15T09:04:47;22.30;;;13.60;;
77822;SDS011;67013;49.730;17.292;2023-02-15T09:07:18;21.40;;;12.80;;
77822;SDS011;67013;49.730;17.292;2023-02-15T09:09:47;23.20;;;12.90;;
77822;SDS011;67013;49.730;17.292;2023-02-15T09:12:17;23.30;;;13.90;;
77822;SDS011;67013;49.730;17.292;2023-02-15T09:14:46;18.60;;;11.90;;
77822;SDS011;67013;49.730;17.292;2023-02-15T09:17:15;21.10;;;12.50;;
77822;SDS011;67013;49.730;17.292;2023-02-15T09:19:45;21.90;;;13.00;;
77822;SDS011;67013;49.730;17.292;2023-02-15T09:22:14;21.60;;;13.60;;
77822;SDS011;67013;49.730;17.292;2023-02-15T09:24:44;22.00;;;13.50;;
77822;SDS011;67013;49.730;17.292;2023-02-15T09:27:13;31.50;;;18.70;;
77822;SDS011;67013;49.730;17.292;2023-02-15T09:29:43;25.80;;;14.90;;
77822;SDS011;67013;49.730;17.292;2023-02-15T09:32:14;30.90;;;18.00;;
77822;SDS011;67013;49.730;17.292;2023-02-15T09:34:44;43.70;;;25.50;;
77822;SDS011;67013;49.730;17.292;2023-02-15T09:37:13;38.80;;;26.30;;
77822;SDS011;67013;49.730;17.292;2023-02-15T09:39:43;30.50;;;20.50;;
77822;SDS011;67013;49.730;17.292;2023-02-15T09:45:14;26.90;;;15.90;;
77822;SDS011;67013;49.730;17.292;2023-02-15T09:48:07;23.10;;;14.40;;
77822;SDS011;67013;49.730;17.292;2023-02-15T09:50:59;23.60;;;14.50;;
77822;SDS011;67013;49.730;17.292;2023-02-15T09:53:47;23.40;;;13.90;;
77822;SDS011;67013;49.730;17.292;2023-02-15T09:56:32;27.30;;;15.60;;
77822;SDS011;67013;49.730;17.292;2023-02-15T09:59:09;26.90;;;15.20;;
77822;SDS011;67013;49.730;17.292;2023-02-15T10:01:48;20.90;;;13.00;;
77822;SDS011;67013;49.730;17.292;2023-02-15T10:04:29;25.40;;;15.00;;
77822;SDS011;67013;49.730;17.292;2023-02-15T10:07:22;24.50;;;14.10;;
77822;SDS011;67013;49.730;17.292;2023-02-15T10:10:07;23.60;;;15.40;;
77822;SDS011;67013;49.730;17.292;2023-02-15T10:12:55;23.10;;;14.00;;
77822;SDS011;67013;49.730;17.292;2023-02-15T10:15:46;24.00;;;14.70;;
77822;SDS011;67013;49.730;17.292;2023-02-15T10:18:34;28.80;;;17.60;;
77822;SDS011;67013;49.730;17.292;2023-02-15T10:21:17;24.20;;;14.30;;
77822;SDS011;67013;49.730;17.292;2023-02-15T10:24:03;25.00;;;16.70;;
77822;SDS011;67013;49.730;17.292;2023-02-15T10:26:54;26.90;;;16.70;;
77822;SDS011;67013;49.730;17.292;2023-02-15T10:29:32;24.30;;;14.90;;
77822;SDS011;67013;49.730;17.292;2023-02-15T10:32:08;27.40;;;17.30;;
77822;SDS011;67013;49.730;17.292;2023-02-15T10:34:47;25.30;;;14.60;;
77822;SDS011;67013;49.730;17.292;2023-02-15T10:40:17;23.50;;;13.40;;
77822;SDS011;67013;49.730;17.292;2023-02-15T10:43:03;23.60;;;12.90;;
77822;SDS011;67013;49.730;17.292;2023-02-15T10:45:43;20.40;;;13.00;;
77822;SDS011;67013;49.730;17.292;2023-02-15T10:48:29;22.00;;;13.30;;
77822;SDS011;67013;49.730;17.292;2023-02-15T10:51:14;23.10;;;13.80;;
77822;SDS011;67013;49.730;17.292;2023-02-15T10:53:53;21.90;;;11.80;;
77822;SDS011;67013;49.730;17.292;2023-02-15T10:56:42;20.90;;;12.70;;
77822;SDS011;67013;49.730;17.292;2023-02-15T10:59:35;12.20;;;6.80;;
77822;SDS011;67013;49.730;17.292;2023-02-15T11:02:19;24.70;;;13.50;;
77822;SDS011;67013;49.730;17.292;2023-02-15T11:04:56;21.90;;;12.60;;
77822;SDS011;67013;49.730;17.292;2023-02-15T11:07:43;22.20;;;13.00;;
77822;SDS011;67013;49.730;17.292;2023-02-15T11:10:19;24.70;;;15.00;;
77822;SDS011;67013;49.730;17.292;2023-02-15T11:12:56;20.00;;;11.50;;
77822;SDS011;67013;49.730;17.292;2023-02-15T11:15:30;22.40;;;13.50;;
77822;SDS011;67013;49.730;17.292;2023-02-15T11:18:06;46.10;;;24.50;;
77822;SDS011;67013;49.730;17.292;2023-02-15T11:20:52;31.10;;;17.90;;
77822;SDS011;67013;49.730;17.292;2023-02-15T11:23:26;18.30;;;9.70;;
77822;SDS011;67013;49.730;17.292;2023-02-15T11:25:58;19.00;;;12.20;;
77822;SDS011;67013;49.730;17.292;2023-02-15T11:28:31;23.80;;;13.50;;
77822;SDS011;67013;49.730;17.292;2023-02-15T11:31:12;22.50;;;12.00;;
77822;SDS011;67013;49.730;17.292;2023-02-15T11:33:45;29.60;;;19.50;;
77822;SDS011;67013;49.730;17.292;2023-02-15T11:36:20;21.60;;;13.50;;
77822;SDS011;67013;49.730;17.292;2023-02-15T11:38:52;21.30;;;13.60;;
77822;SDS011;67013;49.730;17.292;2023-02-15T11:41:31;25.90;;;17.00;;
77822;SDS011;67013;49.730;17.292;2023-02-15T11:44:06;23.00;;;13.60;;
77822;SDS011;67013;49.730;17.292;2023-02-15T11:46:42;24.00;;;14.60;;
77822;SDS011;67013;49.730;17.292;2023-02-15T11:49:16;22.60;;;13.50;;
77822;SDS011;67013;49.730;17.292;2023-02-15T11:51:51;25.10;;;14.80;;
77822;SDS011;67013;49.730;17.292;2023-02-15T11:54:26;22.30;;;14.20;;
77822;SDS011;67013;49.730;17.292;2023-02-15T11:56:57;20.20;;;11.80;;
77822;SDS011;67013;49.730;17.292;2023-02-15T11:59:32;24.80;;;13.90;;
77822;SDS011;67013;49.730;17.292;2023-02-15T12:02:10;20.70;;;12.70;;
77822;SDS011;67013;49.730;17.292;2023-02-15T12:04:46;21.40;;;13.40;;
77822;SDS011;67013;49.730;17.292;2023-02-15T12:07:23;24.00;;;14.20;;
77822;SDS011;67013;49.730;17.292;2023-02-15T12:09:59;15.70;;;9.00;;
77822;SDS011;67013;49.730;17.292;2023-02-15T12:12:34;16.90;;;9.70;;
77822;SDS011;67013;49.730;17.292;2023-02-15T12:15:05;21.70;;;12.50;;
77822;SDS011;67013;49.730;17.292;2023-02-15T12:17:38;17.80;;;11.10;;
77822;SDS011;67013;49.730;17.292;2023-02-15T12:22:58;24.40;;;14.30;;
77822;SDS011;67013;49.730;17.292;2023-02-15T12:25:33;24.20;;;15.20;;
77822;SDS011;67013;49.730;17.292;2023-02-15T12:28:15;18.90;;;11.50;;
77822;SDS011;67013;49.730;17.292;2023-02-15T12:30:54;15.80;;;9.00;;
77822;SDS011;67013;49.730;17.292;2023-02-15T12:33:27;17.30;;;10.80;;
77822;SDS011;67013;49.730;17.292;2023-02-15T12:36:01;22.40;;;13.00;;
77822;SDS011;67013;49.730;17.292;2023-02-15T12:38:38;22.20;;;14.10;;
77822;SDS011;67013;49.730;17.292;2023-02-15T12:41:22;19.50;;;11.10;;
77822;SDS011;67013;49.730;17.292;2023-02-15T12:44:04;21.10;;;12.80;;
77822;SDS011;67013;49.730;17.292;2023-02-15T12:46:45;22.70;;;13.20;;
77822;SDS011;67013;49.730;17.292;2023-02-15T12:49:26;15.10;;;9.30;;
77822;SDS011;67013;49.730;17.292;2023-02-15T12:51:57;23.50;;;14.00;;
77822;SDS011;67013;49.730;17.292;2023-02-15T12:54:30;26.20;;;15.40;;
77822;SDS011;67013;49.730;17.292;2023-02-15T12:57:14;20.30;;;12.70;;
77822;SDS011;67013;49.730;17.292;2023-02-15T12:59:55;20.90;;;13.30;;
77822;SDS011;67013;49.730;17.292;2023-02-15T13:02:27;16.90;;;10.70;;
77822;SDS011;67013;49.730;17.292;2023-02-15T13:05:04;23.70;;;14.60;;
77822;SDS011;67013;49.730;17.292;2023-02-15T13:07:46;22.00;;;13.60;;
77822;SDS011;67013;49.730;17.292;2023-02-15T13:10:26;25.20;;;14.10;;
77822;SDS011;67013;49.730;17.292;2023-02-15T13:12:57;24.40;;;15.40;;
77822;SDS011;67013;49.730;17.292;2023-02-15T13:15:41;23.50;;;15.50;;
77822;SDS011;67013;49.730;17.292;2023-02-15T13:20:44;25.00;;;14.60;;
77822;SDS011;67013;49.730;17.292;2023-02-15T13:23:20;23.80;;;14.90;;
77822;SDS011;67013;49.730;17.292;2023-02-15T13:25:56;18.50;;;12.90;;
77822;SDS011;67013;49.730;17.292;2023-02-15T13:28:32;16.60;;;8.90;;
77822;SDS011;67013;49.730;17.292;2023-02-15T13:31:09;19.70;;;12.30;;
77822;SDS011;67013;49.730;17.292;2023-02-15T13:33:42;20.20;;;12.00;;
77822;SDS011;67013;49.730;17.292;2023-02-15T13:36:16;21.80;;;12.70;;
77822;SDS011;67013;49.730;17.292;2023-02-15T13:38:54;21.80;;;13.10;;
77822;SDS011;67013;49.730;17.292;2023-02-15T13:41:32;18.90;;;10.90;;
77822;SDS011;67013;49.730;17.292;2023-02-15T13:44:09;20.60;;;11.20;;
77822;SDS011;67013;49.730;17.292;2023-02-15T13:46:51;18.10;;;11.10;;
77822;SDS011;67013;49.730;17.292;2023-02-15T13:49:32;21.80;;;14.20;;
77822;SDS011;67013;49.730;17.292;2023-02-15T13:52:16;19.80;;;11.90;;
77822;SDS011;67013;49.730;17.292;2023-02-15T13:54:59;25.10;;;15.00;;
77822;SDS011;67013;49.730;17.292;2023-02-15T13:57:47;21.10;;;12.10;;
77822;SDS011;67013;49.730;17.292;2023-02-15T14:00:30;27.20;;;17.10;;
77822;SDS011;67013;49.730;17.292;2023-02-15T14:06:16;22.20;;;14.00;;
77822;SDS011;67013;49.730;17.292;2023-02-15T14:09:11;22.30;;;14.00;;
77822;SDS011;67013;49.730;17.292;2023-02-15T14:11:50;19.30;;;10.40;;
77822;SDS011;67013;49.730;17.292;2023-02-15T14:14:45;21.70;;;12.90;;
77822;SDS011;67013;49.730;17.292;2023-02-15T14:17:31;20.00;;;12.10;;
77822;SDS011;67013;49.730;17.292;2023-02-15T14:20:14;22.80;;;13.50;;
77822;SDS011;67013;49.730;17.292;2023-02-15T14:22:50;23.40;;;14.80;;
77822;SDS011;67013;49.730;17.292;2023-02-15T14:25:33;18.10;;;11.20;;
77822;SDS011;67013;49.730;17.292;2023-02-15T14:28:08;19.80;;;12.30;;
77822;SDS011;67013;49.730;17.292;2023-02-15T14:30:42;25.10;;;13.50;;
77822;SDS011;67013;49.730;17.292;2023-02-15T14:33:24;30.50;;;17.40;;
77822;SDS011;67013;49.730;17.292;2023-02-15T14:36:00;23.00;;;13.90;;
77822;SDS011;67013;49.730;17.292;2023-02-15T14:38:36;30.90;;;17.00;;
77822;SDS011;67013;49.730;17.292;2023-02-15T14:41:15;23.80;;;14.20;;
77822;SDS011;67013;49.730;17.292;2023-02-15T14:43:49;20.20;;;12.10;;
77822;SDS011;67013;49.730;17.292;2023-02-15T14:46:29;22.10;;;12.40;;
77822;SDS011;67013;49.730;17.292;2023-02-15T14:49:05;20.00;;;12.50;;
77822;SDS011;67013;49.730;17.292;2023-02-15T14:57:32;25.80;;;15.30;;
77822;SDS011;67013;49.730;17.292;2023-02-15T15:02:59;20.10;;;14.10;;
77822;SDS011;67013;49.730;17.292;2023-02-15T15:05:32;22.20;;;13.30;;
77822;SDS011;67013;49.730;17.292;2023-02-15T15:08:03;22.10;;;14.10;;
77822;SDS011;67013;49.730;17.292;2023-02-15T15:10:39;26.70;;;16.90;;
77822;SDS011;67013;49.730;17.292;2023-02-15T15:16:30;26.30;;;16.00;;
77822;SDS011;67013;49.730;17.292;2023-02-15T15:19:56;19.20;;;12.40;;
77822;SDS011;67013;49.730;17.292;2023-02-15T15:22:31;21.70;;;13.40;;
77822;SDS011;67013;49.730;17.292;2023-02-15T15:25:02;31.20;;;18.00;;
77822;SDS011;67013;49.730;17.292;2023-02-15T15:33:46;24.50;;;16.70;;
77822;SDS011;67013;49.730;17.292;2023-02-15T15:46:22;24.50;;;15.40;;